createdAt,value
2018-07-11T00:01:39.268Z,16.83
2018-07-11T00:04:07.853Z,16.86
2018-07-11T00:06:36.444Z,16.90
2018-07-11T00:09:05.424Z,16.80
2018-07-11T00:11:34.024Z,16.79
2018-07-11T00:14:02.612Z,16.72
2018-07-11T00:16:31.192Z,16.70
2018-07-11T00:18:59.764Z,16.74
2018-07-11T00:21:28.354Z,16.81
2018-07-11T00:23:56.960Z,16.86
2018-07-11T00:26:25.576Z,16.93
2018-07-11T00:28:54.164Z,16.99
2018-07-11T00:31:22.744Z,16.99
2018-07-11T00:33:51.305Z,16.99
2018-07-11T00:36:19.896Z,16.97
2018-07-11T00:38:48.491Z,16.94
2018-07-11T00:41:17.150Z,16.88
2018-07-11T00:43:45.760Z,16.65
2018-07-11T00:46:17.017Z,16.53
2018-07-11T00:48:46.479Z,16.65
2018-07-11T00:51:15.053Z,16.72
2018-07-11T00:53:43.633Z,16.79
2018-07-11T00:56:12.353Z,16.83
2018-07-11T00:58:45.651Z,16.78
2018-07-11T01:01:15.702Z,16.75
2018-07-11T01:03:49.872Z,16.76
2018-07-11T01:06:19.404Z,16.79
2018-07-11T01:08:51.316Z,16.69
2018-07-11T01:11:19.976Z,16.68
2018-07-11T01:13:49.371Z,16.72
2018-07-11T01:16:19.332Z,16.58
2018-07-11T01:19:00.579Z,16.58
2018-07-11T01:21:29.800Z,16.33
2018-07-11T01:24:02.312Z,16.32
2018-07-11T01:26:32.943Z,16.30
2018-07-11T01:29:01.505Z,16.38
2018-07-11T01:31:30.075Z,16.46
2018-07-11T01:33:59.174Z,16.46
2018-07-11T01:36:28.162Z,16.51
2018-07-11T01:38:57.213Z,16.59
2018-07-11T01:41:25.782Z,16.41
2018-07-11T01:43:54.363Z,16.46
2018-07-11T01:46:22.934Z,16.49
2018-07-11T01:48:51.587Z,16.54
2018-07-11T01:51:20.660Z,16.52
2018-07-11T01:53:49.211Z,16.41
2018-07-11T01:56:17.833Z,16.43
2018-07-11T01:58:47.501Z,16.45
2018-07-11T02:01:16.974Z,16.37
2018-07-11T02:03:45.572Z,16.27
2018-07-11T02:06:14.193Z,16.25
2018-07-11T02:08:43.331Z,16.24
2018-07-11T02:11:12.443Z,16.32
2018-07-11T02:13:41.076Z,16.40
2018-07-11T02:16:09.720Z,16.46
2018-07-11T02:18:38.315Z,16.43
2018-07-11T02:21:07.100Z,16.38
2018-07-11T02:23:38.679Z,16.42
2018-07-11T02:26:07.361Z,16.48
2018-07-11T02:28:35.928Z,16.39
2018-07-11T02:31:05.058Z,16.32
2018-07-11T02:33:33.660Z,16.31
2018-07-11T02:36:02.227Z,16.29
2018-07-11T02:38:30.796Z,16.19
2018-07-11T02:40:59.443Z,16.18
2018-07-11T02:43:28.005Z,16.11
2018-07-11T02:45:56.643Z,16.11
2018-07-11T02:48:25.484Z,16.17
2018-07-11T02:50:54.136Z,16.25
2018-07-11T02:53:24.343Z,16.38
2018-07-11T02:55:53.868Z,16.47
2018-07-11T02:58:22.468Z,16.44
2018-07-11T03:00:51.194Z,16.40
2018-07-11T03:03:20.028Z,16.29
2018-07-11T03:05:48.827Z,16.16
2018-07-11T03:08:18.204Z,16.08
2018-07-11T03:10:47.184Z,16.09
2018-07-11T03:13:19.091Z,16.10
2018-07-11T03:15:47.633Z,16.03
2018-07-11T03:18:16.194Z,16.06
2018-07-11T03:20:44.739Z,16.08
2018-07-11T03:23:13.380Z,16.08
2018-07-11T03:25:41.992Z,16.14
2018-07-11T03:28:10.582Z,16.23
2018-07-11T03:30:39.165Z,16.33
2018-07-11T03:33:07.819Z,16.33
2018-07-11T03:35:36.378Z,16.39
2018-07-11T03:38:04.983Z,16.38
2018-07-11T03:40:33.571Z,16.35
2018-07-11T03:43:02.166Z,16.41
2018-07-11T03:45:30.728Z,16.34
2018-07-11T03:47:59.316Z,16.35
2018-07-11T03:50:27.917Z,16.45
2018-07-11T03:52:56.528Z,16.62
2018-07-11T03:55:25.055Z,16.63
2018-07-11T03:57:53.597Z,16.58
2018-07-11T04:00:24.849Z,16.36
2018-07-11T04:02:53.673Z,16.36
2018-07-11T04:05:22.556Z,16.21
2018-07-11T04:07:51.179Z,16.29
2018-07-11T04:10:19.860Z,16.21
2018-07-11T04:12:52.044Z,16.08
2018-07-11T04:15:20.617Z,16.09
2018-07-11T04:17:49.183Z,16.22
2018-07-11T04:20:17.795Z,16.07
2018-07-11T04:22:46.340Z,16.12
2018-07-11T04:25:15.039Z,16.28
2018-07-11T04:27:43.624Z,16.36
2018-07-11T04:30:12.189Z,16.45
2018-07-11T04:32:40.951Z,16.49
2018-07-11T04:35:09.636Z,16.55
2018-07-11T04:37:51.328Z,16.56
2018-07-11T04:40:20.060Z,16.56
2018-07-11T04:42:48.645Z,16.52
2018-07-11T04:45:17.278Z,16.57
2018-07-11T04:47:45.871Z,16.63
2018-07-11T04:50:14.488Z,16.69
2018-07-11T04:52:43.888Z,16.59
2018-07-11T04:55:12.722Z,16.45
2018-07-11T04:57:41.279Z,16.54
2018-07-11T05:00:09.884Z,16.52
2018-07-11T05:02:38.412Z,16.63
2018-07-11T05:05:07.058Z,16.75
2018-07-11T05:07:35.635Z,16.74
2018-07-11T05:10:04.264Z,16.77
2018-07-11T05:12:32.843Z,16.82
2018-07-11T05:15:01.417Z,16.76
2018-07-11T05:17:30.036Z,16.74
2018-07-11T05:19:58.672Z,16.52
2018-07-11T05:22:27.262Z,16.51
2018-07-11T05:24:55.820Z,16.61
2018-07-11T05:27:24.388Z,16.70
2018-07-11T05:29:52.925Z,16.79
2018-07-11T05:32:21.505Z,16.92
2018-07-11T05:34:50.052Z,17.06
2018-07-11T05:37:18.618Z,17.10
2018-07-11T05:39:47.181Z,17.06
2018-07-11T05:42:15.792Z,17.17
2018-07-11T05:44:44.343Z,17.02
2018-07-11T05:47:13.068Z,16.95
2018-07-11T05:49:41.622Z,16.97
2018-07-11T05:52:10.295Z,17.07
2018-07-11T05:54:38.840Z,17.10
2018-07-11T05:57:07.444Z,17.13
2018-07-11T05:59:36.106Z,17.14
2018-07-11T06:02:04.828Z,17.12
2018-07-11T06:04:33.380Z,17.13
2018-07-11T06:07:01.976Z,17.30
2018-07-11T06:09:30.556Z,17.24
2018-07-11T06:11:59.121Z,17.45
2018-07-11T06:14:28.700Z,17.35
2018-07-11T06:16:57.789Z,17.37
2018-07-11T06:19:26.340Z,17.38
2018-07-11T06:21:54.945Z,17.43
2018-07-11T06:24:23.612Z,17.45
2018-07-11T06:26:52.174Z,17.47
2018-07-11T06:29:20.757Z,17.39
2018-07-11T06:31:49.284Z,17.36
2018-07-11T06:34:17.885Z,17.41
2018-07-11T06:36:46.623Z,17.43
2018-07-11T06:39:15.481Z,17.45
2018-07-11T06:41:44.012Z,17.48
2018-07-11T06:44:12.575Z,17.53
2018-07-11T06:46:41.184Z,17.57
2018-07-11T06:49:09.827Z,17.56
2018-07-11T06:51:38.418Z,17.59
2018-07-11T06:54:07.363Z,17.72
2018-07-11T06:56:35.939Z,17.74
2018-07-11T06:59:04.601Z,17.79
2018-07-11T07:01:33.184Z,17.78
2018-07-11T07:04:01.734Z,17.78
2018-07-11T07:06:30.340Z,17.75
2018-07-11T07:08:58.951Z,17.74
2018-07-11T07:11:27.593Z,17.74
2018-07-11T07:13:56.209Z,17.74
2018-07-11T07:16:24.847Z,17.77
2018-07-11T07:18:53.389Z,17.79
2018-07-11T07:21:21.961Z,17.85
2018-07-11T07:23:50.579Z,17.75
2018-07-11T07:26:19.200Z,17.82
2018-07-11T07:28:47.728Z,17.76
2018-07-11T07:31:16.363Z,17.80
2018-07-11T07:33:44.998Z,17.85
2018-07-11T07:36:13.816Z,17.83
2018-07-11T07:38:44.259Z,17.80
2018-07-11T07:41:12.892Z,17.79
2018-07-11T07:43:42.945Z,17.79
2018-07-11T07:46:11.655Z,17.83
2018-07-11T07:48:40.246Z,17.79
2018-07-11T07:51:09.914Z,17.76
2018-07-11T07:53:38.492Z,17.81
2018-07-11T07:56:07.206Z,17.73
2018-07-11T07:58:35.772Z,17.79
2018-07-11T08:01:04.528Z,17.84
2018-07-11T08:03:35.951Z,17.88
2018-07-11T08:06:04.540Z,17.90
2018-07-11T08:08:33.544Z,17.89
2018-07-11T08:11:02.244Z,17.91
2018-07-11T08:13:31.044Z,17.86
2018-07-11T08:15:59.616Z,17.81
2018-07-11T08:18:28.228Z,17.72
2018-07-11T08:20:56.846Z,17.71
2018-07-11T08:23:45.229Z,17.55
2018-07-11T08:26:25.579Z,17.53
2018-07-11T08:30:06.832Z,17.49
2018-07-11T08:32:42.104Z,17.41
2018-07-11T08:39:28.783Z,17.51
2018-07-11T08:42:12.698Z,17.01
2018-07-11T08:45:05.920Z,17.15
2018-07-11T08:47:44.683Z,17.40
2018-07-11T08:50:29.535Z,17.48
2018-07-11T08:53:11.762Z,17.41
2018-07-11T08:57:57.376Z,17.13
2018-07-11T09:00:48.187Z,17.12
2018-07-11T09:03:33.866Z,17.15
2018-07-11T09:06:14.363Z,17.31
2018-07-11T09:09:01.324Z,17.40
2018-07-11T09:11:41.004Z,17.53
2018-07-11T09:16:25.284Z,17.64
2018-07-11T09:19:03.809Z,17.39
2018-07-11T09:21:44.981Z,17.41
2018-07-11T09:24:22.444Z,17.52
2018-07-11T09:26:51.274Z,17.57
2018-07-11T09:29:19.924Z,17.51
2018-07-11T09:31:48.512Z,17.54
2018-07-11T09:34:17.066Z,17.55
2018-07-11T09:36:45.637Z,17.62
2018-07-11T09:39:14.252Z,17.63
2018-07-11T09:41:42.886Z,17.46
2018-07-11T09:44:11.589Z,17.58
2018-07-11T09:46:40.226Z,17.71
2018-07-11T09:49:09.264Z,17.86
2018-07-11T09:51:37.980Z,17.91
2018-07-11T09:54:06.572Z,18.00
2018-07-11T09:56:35.176Z,18.06
2018-07-11T09:59:03.865Z,18.08
2018-07-11T10:01:32.461Z,18.03
2018-07-11T10:04:01.164Z,18.11
2018-07-11T10:06:30.052Z,18.20
2018-07-11T10:08:59.692Z,18.24
2018-07-11T10:11:28.298Z,18.36
2018-07-11T10:13:56.950Z,18.10
2018-07-11T10:16:25.624Z,17.83
2018-07-11T10:18:58.455Z,18.00
2018-07-11T10:21:27.557Z,17.87
2018-07-11T10:23:56.120Z,18.01
2018-07-11T10:26:25.526Z,18.14
2018-07-11T10:28:54.592Z,18.17
2018-07-11T10:31:23.644Z,18.31
2018-07-11T10:33:52.256Z,18.43
2018-07-11T10:36:20.983Z,18.60
2018-07-11T10:38:49.696Z,18.54
2018-07-11T10:41:18.538Z,18.61
2018-07-11T10:43:47.392Z,18.68
2018-07-11T10:46:16.126Z,18.63
2018-07-11T10:48:44.724Z,18.60
2018-07-11T10:51:16.009Z,18.51
2018-07-11T10:53:44.559Z,18.51
2018-07-11T10:56:13.144Z,18.48
2018-07-11T10:58:41.760Z,18.45
2018-07-11T11:01:10.391Z,18.30
2018-07-11T11:03:38.944Z,18.17
2018-07-11T11:06:07.492Z,18.23
2018-07-11T11:08:36.094Z,18.36
2018-07-11T11:11:04.704Z,18.31
2018-07-11T11:13:33.350Z,18.23
2018-07-11T11:16:02.081Z,18.05
2018-07-11T11:18:30.638Z,17.92
2018-07-11T11:20:59.245Z,18.19
2018-07-11T11:23:27.814Z,18.13
2018-07-11T11:25:56.357Z,18.20
2018-07-11T11:28:25.013Z,18.26
2018-07-11T11:30:53.617Z,18.32
2018-07-11T11:33:22.242Z,18.40
2018-07-11T11:35:50.793Z,18.46
2018-07-11T11:38:19.620Z,18.35
2018-07-11T11:40:48.912Z,18.22
2018-07-11T11:43:17.589Z,18.21
2018-07-11T11:45:46.168Z,18.13
2018-07-11T11:48:14.776Z,18.10
2018-07-11T11:50:43.369Z,17.99
2018-07-11T11:53:12.409Z,17.75
2018-07-11T11:55:41.023Z,17.64
2018-07-11T11:58:09.623Z,17.73
2018-07-11T12:00:38.184Z,17.78
2018-07-11T12:03:07.300Z,17.86
2018-07-11T12:05:35.880Z,17.85
2018-07-11T12:08:04.480Z,17.77
2018-07-11T12:10:33.060Z,17.79
2018-07-11T12:13:01.730Z,17.71
2018-07-11T12:15:30.392Z,17.70
2018-07-11T12:17:58.996Z,17.68
2018-07-11T12:20:27.850Z,17.70
2018-07-11T12:22:56.413Z,17.64
2018-07-11T12:25:25.096Z,17.68
2018-07-11T12:27:53.909Z,17.65
2018-07-11T12:30:22.980Z,17.64
2018-07-11T12:32:52.008Z,17.77
2018-07-11T12:35:20.715Z,17.88
2018-07-11T12:37:49.839Z,17.97
2018-07-11T12:40:18.406Z,18.06
2018-07-11T12:42:47.042Z,18.01
2018-07-11T12:45:15.677Z,18.02
2018-07-11T12:49:55.075Z,18.04
2018-07-11T12:52:23.784Z,18.01
2018-07-11T12:54:52.381Z,17.97
2018-07-11T12:57:21.096Z,17.98
2018-07-11T12:59:49.752Z,17.95
2018-07-11T13:02:18.500Z,18.06
2018-07-11T13:04:47.641Z,18.03
2018-07-11T13:07:16.369Z,18.04
2018-07-11T13:09:44.960Z,18.07
2018-07-11T13:12:13.559Z,18.11
2018-07-11T13:14:42.229Z,18.16
2018-07-11T13:17:11.781Z,18.18
2018-07-11T13:19:40.437Z,18.04
2018-07-11T13:22:09.033Z,18.13
2018-07-11T13:24:37.620Z,18.18
2018-07-11T13:27:07.021Z,18.25
2018-07-11T13:29:35.668Z,18.32
2018-07-11T13:32:04.625Z,18.27
2018-07-11T13:34:33.272Z,18.33
2018-07-11T13:37:01.918Z,18.40
2018-07-11T13:39:30.864Z,18.45
2018-07-11T13:41:59.483Z,18.43
2018-07-11T13:44:28.080Z,18.42
2018-07-11T13:46:56.634Z,18.40
2018-07-11T13:49:25.204Z,18.36
2018-07-11T13:51:53.912Z,18.37
2018-07-11T13:54:22.545Z,18.37
2018-07-11T13:56:51.568Z,18.40
2018-07-11T13:59:20.202Z,18.38
2018-07-11T14:01:48.771Z,18.38
2018-07-11T14:04:17.428Z,18.43
2018-07-11T14:06:46.107Z,18.46
2018-07-11T14:09:15.056Z,18.52
2018-07-11T14:11:44.790Z,18.55
2018-07-11T14:14:14.152Z,18.60
2018-07-11T14:16:43.148Z,18.61
2018-07-11T14:19:16.078Z,18.61
2018-07-11T14:21:44.813Z,18.60
2018-07-11T14:24:14.232Z,18.60
2018-07-11T14:26:43.428Z,18.61
2018-07-11T14:29:12.098Z,18.63
2018-07-11T14:31:40.709Z,18.64
2018-07-11T14:34:09.947Z,18.69
2018-07-11T14:36:38.804Z,18.66
2018-07-11T14:39:08.498Z,18.63
2018-07-11T14:41:37.137Z,18.60
2018-07-11T14:44:05.739Z,18.61
2018-07-11T14:46:35.970Z,18.70
2018-07-11T14:49:05.151Z,18.70
2018-07-11T14:51:33.994Z,18.74
2018-07-11T14:54:02.933Z,18.58
2018-07-11T14:56:31.568Z,18.63
2018-07-11T14:59:00.814Z,18.59
2018-07-11T15:01:29.470Z,18.67
2018-07-11T15:03:58.065Z,18.89
2018-07-11T15:06:26.643Z,19.06
2018-07-11T15:08:56.224Z,19.34
2018-07-11T15:11:25.052Z,19.38
2018-07-11T15:13:53.943Z,19.50
2018-07-11T15:16:22.557Z,19.86
2018-07-11T15:18:51.577Z,19.77
2018-07-11T15:21:20.389Z,19.64
2018-07-11T15:23:49.027Z,19.75
2018-07-11T15:26:17.781Z,19.72
2018-07-11T15:28:46.453Z,19.92
2018-07-11T15:31:15.615Z,20.15
2018-07-11T15:33:44.275Z,19.96
2018-07-11T15:36:13.050Z,19.84
2018-07-11T15:38:41.649Z,19.86
2018-07-11T15:41:11.525Z,19.92
2018-07-11T15:43:41.593Z,19.87
2018-07-11T15:46:10.309Z,19.88
2018-07-11T15:48:38.890Z,19.97
2018-07-11T15:51:07.578Z,20.25
2018-07-11T15:53:36.447Z,20.55
2018-07-11T15:56:04.952Z,20.81
2018-07-11T15:58:37.650Z,20.89
2018-07-11T16:01:09.074Z,20.84
2018-07-11T16:03:47.282Z,20.86
2018-07-11T16:06:16.870Z,20.87
2018-07-11T16:08:51.544Z,20.86
2018-07-11T16:11:20.158Z,20.87
2018-07-11T16:13:49.423Z,20.60
2018-07-11T16:16:18.192Z,20.62
2018-07-11T16:18:46.817Z,20.78
2018-07-11T16:21:15.662Z,20.70
2018-07-11T16:23:44.360Z,20.55
2018-07-11T16:26:13.419Z,20.37
2018-07-11T16:28:42.350Z,20.33
2018-07-11T16:31:11.821Z,20.19
2018-07-11T16:33:40.562Z,20.05
2018-07-11T16:36:09.184Z,19.98
2018-07-11T16:38:37.804Z,20.06
2018-07-11T16:41:06.733Z,20.06
2018-07-11T16:43:35.339Z,19.93
2018-07-11T16:46:04.461Z,20.08
2018-07-11T16:48:33.108Z,20.26
2018-07-11T16:51:01.751Z,20.39
2018-07-11T16:53:30.366Z,20.53
2018-07-11T16:55:58.983Z,20.57
2018-07-11T16:58:30.432Z,20.56
2018-07-11T17:01:00.347Z,20.54
2018-07-11T17:03:29.772Z,20.51
2018-07-11T17:06:07.052Z,20.59
2018-07-11T17:08:38.140Z,20.48
2018-07-11T17:11:19.630Z,20.50
2018-07-11T17:17:01.856Z,20.24
2018-07-11T17:19:38.311Z,20.02
2018-07-11T17:22:08.629Z,19.85
2018-07-11T17:24:44.319Z,19.73
2018-07-11T17:27:14.529Z,19.63
2018-07-11T17:29:45.882Z,19.45
2018-07-11T17:32:14.632Z,19.31
2018-07-11T17:34:43.256Z,19.25
2018-07-11T17:37:12.391Z,19.10
2018-07-11T17:39:52.200Z,19.04
2018-07-11T17:42:22.284Z,18.97
2018-07-11T17:45:07.377Z,18.80
2018-07-11T17:47:44.640Z,18.57
2018-07-11T17:50:13.229Z,18.33
2018-07-11T17:53:55.160Z,18.18
2018-07-11T17:56:29.088Z,17.86
2018-07-11T17:59:00.910Z,17.72
2018-07-11T18:01:38.782Z,17.81
2018-07-11T18:04:14.045Z,17.94
2018-07-11T18:06:53.028Z,17.87
2018-07-11T18:09:23.730Z,17.74
2018-07-11T18:11:58.231Z,17.73
2018-07-11T18:14:42.928Z,17.79
2018-07-11T18:21:10.063Z,17.47
2018-07-11T18:23:49.385Z,17.44
2018-07-11T18:26:24.471Z,17.37
2018-07-11T18:29:19.255Z,17.42
2018-07-11T18:32:02.490Z,17.07
2018-07-11T18:34:40.880Z,16.99
2018-07-11T18:37:18.073Z,16.99
2018-07-11T18:40:01.578Z,17.01
2018-07-11T18:42:40.646Z,17.07
2018-07-11T18:47:22.287Z,17.12
2018-07-11T18:52:04.550Z,16.76
2018-07-11T18:54:50.079Z,16.43
2018-07-11T18:57:30.317Z,16.38
2018-07-11T19:00:22.032Z,16.34
2018-07-11T19:03:02.705Z,16.22
2018-07-11T19:05:58.356Z,16.24
2018-07-11T19:08:48.764Z,16.19
2018-07-11T19:11:21.720Z,16.17
2018-07-11T19:13:54.396Z,16.29
2018-07-11T19:18:37.526Z,16.32
2018-07-11T19:21:13.874Z,16.10
2018-07-11T19:23:54.350Z,16.16
2018-07-11T19:26:30.233Z,16.21
2018-07-11T19:29:05.867Z,16.24
2018-07-11T19:32:20.548Z,16.25
2018-07-11T19:35:00.791Z,16.21
2018-07-11T19:37:43.798Z,16.05
2018-07-11T19:40:43.938Z,15.92
2018-07-11T19:43:29.900Z,15.84
2018-07-11T19:46:12.528Z,15.71
2018-07-11T19:48:50.741Z,15.71
2018-07-11T19:54:02.293Z,15.77
2018-07-11T19:56:40.745Z,15.31
2018-07-11T19:59:09.342Z,15.34
2018-07-11T20:01:37.936Z,15.49
2018-07-11T20:04:06.607Z,15.42
2018-07-11T20:06:36.294Z,15.36
2018-07-11T20:09:05.920Z,15.31
2018-07-11T20:11:34.524Z,15.29
2018-07-11T20:14:03.112Z,15.31
2018-07-11T20:16:31.776Z,15.35
2018-07-11T20:19:00.609Z,15.39
2018-07-11T20:21:30.424Z,15.42
2018-07-11T20:23:59.080Z,15.50
2018-07-11T20:26:27.657Z,15.54
2018-07-11T20:28:56.304Z,15.55
2018-07-11T20:31:24.924Z,15.56
2018-07-11T20:33:53.529Z,15.55
2018-07-11T20:36:22.154Z,15.53
2018-07-11T20:38:50.787Z,15.51
2018-07-11T20:41:19.564Z,15.45
2018-07-11T20:43:48.272Z,15.45
2018-07-11T20:46:17.049Z,15.46
2018-07-11T20:48:45.599Z,15.47
2018-07-11T20:51:14.388Z,15.39
2018-07-11T20:53:42.979Z,15.36
2018-07-11T20:56:11.618Z,15.43
2018-07-11T20:58:51.373Z,15.41
2018-07-11T21:01:31.865Z,15.28
2018-07-11T21:06:30.429Z,15.22
2018-07-11T21:09:21.294Z,14.86
2018-07-11T21:12:05.081Z,14.81
2018-07-11T21:16:47.646Z,14.68
2018-07-11T21:19:16.390Z,14.55
2018-07-11T21:21:44.949Z,14.61
2018-07-11T21:24:13.987Z,14.62
2018-07-11T21:26:42.535Z,14.67
2018-07-11T21:29:11.244Z,14.76
2018-07-11T21:31:39.832Z,14.81
2018-07-11T21:34:08.389Z,14.81
2018-07-11T21:36:36.993Z,14.80
2018-07-11T21:39:06.091Z,14.75
2018-07-11T21:41:34.866Z,14.54
2018-07-11T21:44:03.428Z,14.44
2018-07-11T21:46:32.084Z,14.41
2018-07-11T21:49:00.655Z,14.49
2018-07-11T21:51:29.207Z,14.53
2018-07-11T21:53:57.763Z,14.56
2018-07-11T21:56:26.416Z,14.60
2018-07-11T21:58:54.979Z,14.57
2018-07-11T22:01:23.537Z,14.58
2018-07-11T22:03:52.093Z,14.60
2018-07-11T22:06:21.542Z,14.28
2018-07-11T22:08:50.178Z,14.23
2018-07-11T22:11:18.855Z,14.36
2018-07-11T22:13:47.828Z,14.37
2018-07-11T22:16:16.408Z,14.35
2018-07-11T22:18:46.160Z,14.36
2018-07-11T22:21:14.604Z,14.42
2018-07-11T22:23:41.928Z,14.46
2018-07-11T22:26:09.209Z,14.50
2018-07-11T22:28:36.511Z,14.50
2018-07-11T22:31:03.887Z,14.52
2018-07-11T22:33:31.180Z,14.48
2018-07-11T22:35:58.474Z,14.49
2018-07-11T22:38:25.808Z,14.24
2018-07-11T22:40:53.089Z,14.12
2018-07-11T22:43:20.383Z,14.00
2018-07-11T22:45:47.694Z,14.09
2018-07-11T22:48:15.059Z,14.20
2018-07-11T22:50:42.343Z,14.28
2018-07-11T22:53:09.821Z,14.28
2018-07-11T22:55:37.143Z,14.32
2018-07-11T22:58:04.456Z,14.22
2018-07-11T23:00:31.778Z,14.18
2018-07-11T23:02:59.073Z,14.20
2018-07-11T23:05:26.435Z,14.23
2018-07-11T23:07:53.731Z,14.27
2018-07-11T23:10:21.024Z,14.27
2018-07-11T23:12:48.350Z,14.25
2018-07-11T23:15:15.668Z,14.28
2018-07-11T23:17:43.267Z,14.25
2018-07-11T23:20:10.629Z,14.28
2018-07-11T23:22:37.980Z,14.28
2018-07-11T23:25:05.347Z,14.28
2018-07-11T23:27:32.933Z,14.29
2018-07-11T23:32:50.411Z,14.15
2018-07-11T23:35:17.708Z,14.15
2018-07-11T23:37:45.036Z,14.15
2018-07-11T23:40:12.466Z,14.19
2018-07-11T23:42:39.780Z,14.14
2018-07-11T23:45:07.104Z,14.06
2018-07-11T23:47:34.416Z,14.01
2018-07-11T23:50:01.702Z,14.02
2018-07-11T23:52:29.023Z,13.99
2018-07-11T23:54:56.321Z,13.93
2018-07-11T23:57:23.610Z,13.91
2018-07-11T23:59:51.036Z,13.88
